Terminal Aerodrome Forecast
Issued by NWS Pueblo, CO

Home | Current Version | Previous Version | Text Only | Print | Product List | Glossary On
Versions: 1 2 3 4 5 6 7 8 9 10 11 12 13 14 15 16 17 18 19 20 21 22 23 24 25 26 27
000
FTUS45 KPUB 142331
TAFALS
TAF
KALS 142331Z 1500/1524 30008KT P6SM VCSH SCT090 BKN140
      TEMPO 1500/1501 VRB15G25KT BKN090
     FM150200 33006KT P6SM SCT120 BKN200
     FM150600 VRB06KT P6SM FEW200
     FM151900 18008KT P6SM SCT120=

USA.gov is the U.S. government's official web portal to all federal, state and local government web resources and services.